Date,TemperatureHighF,TemperatureAvgF,TemperatureLowF,DewpointHighF,DewpointAvgF,DewpointLowF,HumidityHigh,HumidityAvg,HumidityLow,PressureMaxIn,PressureMinIn,WindSpeedMaxMPH,WindSpeedAvgMPH,GustSpeedMaxMPH,PrecipitationSumIn
2013-8-1,58.3,56.1,54.9,58.0,55.9,54.6,99,99,99,29.70,29.63,7,2,7,0.04
2013-8-2,68.0,59.1,55.0,67.6,58.8,54.8,99,99,99,29.71,29.65,8,2,8,0.11
2013-8-3,70.7,60.3,52.0,70.4,59.9,51.5,99,99,90,29.67,29.56,17,3,17,0.00
2013-8-4,63.9,57.4,54.0,63.6,57.2,53.5,99,99,99,29.60,29.54,13,4,13,0.00
2013-8-5,65.3,56.5,52.5,64.9,56.3,52.3,99,99,99,29.61,29.53,16,4,16,0.00
2013-8-6,63.0,55.1,50.2,62.7,54.9,49.9,99,99,99,29.57,29.50,14,4,14,0.00
2013-8-7,61.9,53.8,50.4,61.4,53.5,-10.2,99,99,99,29.66,29.56,8,1,8,0.00
2013-8-8,69.1,57.5,52.5,68.6,57.3,-1.2,99,99,99,29.64,29.51,14,2,14,0.02
2013-8-9,70.5,57.9,53.6,69.9,57.7,53.3,99,99,99,29.54,29.44,17,3,17,0.00
2013-8-10,60.4,55.9,52.0,60.0,55.6,51.7,99,99,99,29.64,29.51,5,0,5,0.02
2013-8-11,70.9,59.0,53.8,70.6,58.7,53.5,99,99,99,29.64,29.59,6,1,6,0.01
2013-8-12,73.2,59.7,53.1,73.0,59.4,52.8,99,99,94,29.65,29.59,9,1,9,0.00
2013-8-13,73.0,60.3,50.0,69.5,57.7,49.7,99,92,63,29.65,29.51,10,2,14,0.00
2013-8-14,66.0,60.2,54.9,65.8,59.9,54.6,99,99,94,29.55,29.50,9,3,9,0.08
2013-8-15,66.7,60.7,57.4,66.5,60.5,56.8,99,99,99,29.55,29.48,8,1,8,0.13
2013-8-16,68.2,60.2,55.2,67.9,59.9,54.8,99,99,99,29.62,29.52,5,1,5,0.01
2013-8-17,66.7,61.4,55.6,66.5,61.1,55.3,99,99,99,29.67,29.60,5,1,5,0.02
2013-8-18,75.6,63.9,54.3,74.8,63.6,54.1,99,99,91,29.69,29.60,11,2,11,0.00
2013-8-19,74.3,63.1,54.3,72.4,62.4,54.1,99,98,84,29.70,29.62,16,4,16,0.00
2013-8-20,70.5,60.4,50.7,65.6,57.8,50.5,99,92,73,29.68,29.55,17,5,17,0.00
2013-8-21,73.6,59.2,49.5,65.4,56.2,49.2,99,91,61,29.56,29.43,13,3,13,0.00
2013-8-22,59.9,54.7,50.5,59.5,54.5,50.3,99,99,99,29.51,29.44,6,1,6,0.00
2013-8-23,62.6,57.9,53.2,62.3,57.6,53.0,99,99,99,29.52,29.47,9,2,9,0.01
2013-8-24,71.8,61.6,54.0,71.3,61.2,53.7,99,99,89,29.48,29.44,8,2,8,0.00
2013-8-25,64.4,56.6,52.2,63.8,56.3,51.9,99,99,99,29.50,29.45,8,2,8,0.00
2013-8-26,66.9,58.4,53.2,66.5,58.1,53.0,99,99,99,29.51,29.45,17,6,17,0.18
2013-8-27,72.9,62.3,57.7,72.6,62.0,57.5,99,99,99,29.50,29.38,12,3,12,0.20
2013-8-28,68.4,63.3,58.6,68.1,63.1,58.4,99,99,99,29.46,29.38,7,2,7,0.01
2013-8-29,66.9,62.2,60.1,66.1,61.8,4.1,99,99,10,29.63,29.38,20,8,20,0.22
2013-8-30,73.8,61.5,59.0,73.3,60.9,5.0,99,98,10,29.70,29.63,11,1,11,0.02
2013-8-31,77.9,60.0,53.8,76.0,59.5,53.5,99,98,84,29.60,29.46,8,2,8,0.00